Time;durP1;ratioP1;P1;durP2;ratioP2;P2;SDS_P1;SDS_P2;PMS_P1;PMS_P2;Temp;Humidity;BMP_temperature;BMP_pressure;BME280_temperature;BME280_humidity;BME280_pressure;Samples;Min_cycle;Max_cycle;Signal;HPM_P1;HPM_P2
2022/02/07 00:01:40;;;;;;;;;2.00;1.00;;;;;;;;5036480;28;45841;-95
2022/02/07 00:04:07;;;;;;;;;4.00;1.00;;;;;;;;5038835;28;45425;-94
2022/02/07 00:06:52;;;;;;;;;2.33;1.00;;;;;;;;5041577;28;45539;-95
2022/02/07 00:09:18;;;;;;;;;0.67;0.67;;;;;;;;5038860;28;47403;-94
2022/02/07 00:11:43;;;;;;;;;2.00;1.00;;;;;;;;5038523;28;45510;-95
2022/02/07 00:14:08;;;;;;;;;1.00;1.00;;;;;;;;5049726;28;45771;-95
2022/02/07 00:16:35;;;;;;;;;2.00;2.00;;;;;;;;5055135;28;45063;-94
2022/02/07 00:19:00;;;;;;;;;3.00;1.00;;;;;;;;5039437;28;47220;-94
2022/02/07 00:21:25;;;;;;;;;0.00;0.00;;;;;;;;5023353;28;45471;-95
2022/02/07 00:23:52;;;;;;;;;3.00;0.67;;;;;;;;5031598;28;45484;-94
2022/02/07 00:26:18;;;;;;;;;2.33;1.00;;;;;;;;5030251;28;45528;-95
2022/02/07 00:28:43;;;;;;;;;2.00;2.00;;;;;;;;5051280;28;47915;-94
2022/02/07 00:31:08;;;;;;;;;2.00;2.00;;;;;;;;5038532;28;45905;-95
2022/02/07 00:33:34;;;;;;;;;1.67;1.00;;;;;;;;5019863;28;45561;-94
2022/02/07 00:36:01;;;;;;;;;2.67;1.00;;;;;;;;5035923;28;45657;-95
2022/02/07 00:38:26;;;;;;;;;3.33;1.33;;;;;;;;5037679;28;48222;-95
2022/02/07 00:45:52;;;;;;;;;3.00;1.00;;;;;;;;5056949;28;45377;-94
2022/02/07 00:48:19;;;;;;;;;7.00;3.00;;;;;;;;5212850;22;47305;-95
2022/02/07 00:50:44;;;;;;;;;0.33;0.33;;;;;;;;5031369;28;45491;-95
2022/02/07 00:53:12;;;;;;;;;1.00;1.00;;;;;;;;5027050;28;45460;-96
2022/02/07 00:55:38;;;;;;;;;0.33;0.33;;;;;;;;5021039;28;45649;-95
2022/02/07 00:58:03;;;;;;;;;3.00;2.00;;;;;;;;5035280;28;48142;-95
2022/02/07 01:00:29;;;;;;;;;2.00;0.33;;;;;;;;5019161;28;45345;-95
2022/02/07 01:02:54;;;;;;;;;4.00;2.67;;;;;;;;5032070;28;45336;-96
2022/02/07 01:05:19;;;;;;;;;3.00;1.00;;;;;;;;5015005;28;45321;-95
2022/02/07 01:07:48;;;;;;;;;2.00;1.00;;;;;;;;5127856;22;48162;-95
2022/02/07 01:10:17;;;;;;;;;5.33;1.00;;;;;;;;5019939;28;45638;-95
2022/02/07 01:13:03;;;;;;;;;2.00;2.00;;;;;;;;5038999;28;45366;-95
2022/02/07 01:15:56;;;;;;;;;0.00;0.00;;;;;;;;5046283;28;45447;-95
2022/02/07 01:21:35;;;;;;;;;3.67;2.00;;;;;;;;5056391;28;47184;-95
2022/02/07 01:51:58;;;;;;;;;1.67;1.67;;;;;;;;4972642;28;45436;-95
2022/02/07 01:54:19;;;;;;;;;1.00;1.00;;;;;;;;4956377;28;49077;-95
2022/02/07 01:56:44;;;;;;;;;2.00;1.00;;;;;;;;4949195;28;45342;-94
2022/02/07 01:59:10;;;;;;;;;1.33;1.33;;;;;;;;4963971;28;45303;-95
2022/02/07 02:01:37;;;;;;;;;2.67;0.67;;;;;;;;4958532;28;47344;-96
2022/02/07 02:04:03;;;;;;;;;1.00;1.00;;;;;;;;4974461;28;45583;-95
2022/02/07 02:06:28;;;;;;;;;0.00;0.00;;;;;;;;5032948;28;45399;-96
2022/02/07 02:08:55;;;;;;;;;2.00;0.67;;;;;;;;5032166;28;45402;-95
2022/02/07 02:11:20;;;;;;;;;0.00;0.00;;;;;;;;5130712;22;48645;-95
2022/02/07 02:14:32;;;;;;;;;2.00;1.00;;;;;;;;5038012;28;45388;-95
2022/02/07 02:33:48;;;;;;;;;1.67;0.67;;;;;;;;5001409;28;45597;-95
2022/02/07 02:38:19;;;;;;;;;1.00;0.00;;;;;;;;5005379;28;44939;-96
2022/02/07 02:46:20;;;;;;;;;1.00;1.00;;;;;;;;4960143;28;45364;-95
2022/02/07 02:48:45;;;;;;;;;0.00;0.00;;;;;;;;4978401;28;45424;-95
2022/02/07 02:51:10;;;;;;;;;1.00;1.00;;;;;;;;4977714;28;45534;-96
2022/02/07 02:53:36;;;;;;;;;1.00;1.00;;;;;;;;4957876;28;46508;-96
2022/02/07 02:56:01;;;;;;;;;1.67;0.67;;;;;;;;4950620;28;45533;-96
2022/02/07 02:58:26;;;;;;;;;3.00;0.33;;;;;;;;4974377;28;45621;-95
2022/02/07 03:00:52;;;;;;;;;0.33;0.33;;;;;;;;4952852;28;45747;-96
2022/02/07 03:03:18;;;;;;;;;2.33;0.00;;;;;;;;4996506;28;48583;-96
2022/02/07 03:05:45;;;;;;;;;3.00;0.33;;;;;;;;5051279;28;45790;-96
2022/02/07 03:08:14;;;;;;;;;0.00;0.00;;;;;;;;5040853;28;45337;-96
2022/02/07 03:10:53;;;;;;;;;1.67;0.00;;;;;;;;5040647;28;45344;-95
2022/02/07 03:18:31;;;;;;;;;0.33;0.33;;;;;;;;5057499;28;45526;-95
2022/02/07 03:20:56;;;;;;;;;1.67;1.67;;;;;;;;5039111;28;45529;-95
2022/02/07 03:23:21;;;;;;;;;4.67;1.33;;;;;;;;5036669;28;47203;-95
2022/02/07 03:25:47;;;;;;;;;1.67;1.67;;;;;;;;5040071;28;45713;-95
2022/02/07 03:28:13;;;;;;;;;3.00;1.00;;;;;;;;5039705;28;45415;-95
2022/02/07 03:30:38;;;;;;;;;2.00;1.00;;;;;;;;5040175;28;45496;-96
2022/02/07 03:33:28;;;;;;;;;1.67;1.00;;;;;;;;5042248;28;48201;-95
2022/02/07 03:35:54;;;;;;;;;1.67;1.00;;;;;;;;5039599;28;45426;-96
2022/02/07 03:38:19;;;;;;;;;1.67;1.00;;;;;;;;5039521;28;45728;-95
2022/02/07 03:40:44;;;;;;;;;1.33;1.33;;;;;;;;5040186;28;45379;-96
2022/02/07 03:43:09;;;;;;;;;2.67;2.00;;;;;;;;5040576;28;47038;-95
2022/02/07 03:45:35;;;;;;;;;3.00;1.00;;;;;;;;5040243;28;46041;-95
2022/02/07 03:48:00;;;;;;;;;2.00;1.67;;;;;;;;5039875;28;45410;-95
2022/02/07 03:50:25;;;;;;;;;2.67;1.33;;;;;;;;5040188;28;45681;-95
2022/02/07 03:52:50;;;;;;;;;2.33;2.00;;;;;;;;5039978;28;48233;-96
2022/02/07 03:55:16;;;;;;;;;1.00;1.00;;;;;;;;5046249;28;45353;-96
2022/02/07 03:57:41;;;;;;;;;4.00;2.00;;;;;;;;5039950;28;45622;-95
2022/02/07 04:00:08;;;;;;;;;2.00;1.00;;;;;;;;5039908;28;45390;-95
2022/02/07 04:02:37;;;;;;;;;2.67;2.00;;;;;;;;5038732;28;47745;-95
2022/02/07 04:05:28;;;;;;;;;7.67;7.67;;;;;;;;5039735;28;46049;-95
2022/02/07 04:07:48;;;;;;;;;5.67;3.67;;;;;;;;5044081;28;45597;-95
2022/02/07 04:10:13;;;;;;;;;4.67;3.00;;;;;;;;5040569;28;45641;-96
2022/02/07 04:12:41;;;;;;;;;4.33;4.33;;;;;;;;5040606;28;46991;-95
2022/02/07 04:15:13;;;;;;;;;4.33;2.33;;;;;;;;5045560;28;45478;-95
2022/02/07 04:17:43;;;;;;;;;3.33;1.00;;;;;;;;5049930;28;45344;-95
2022/02/07 04:20:08;;;;;;;;;1.33;1.33;;;;;;;;5050057;28;45537;-96
2022/02/07 04:22:34;;;;;;;;;2.00;2.00;;;;;;;;5036402;28;48765;-95
2022/02/07 04:24:59;;;;;;;;;6.00;3.67;;;;;;;;5039996;28;45364;-95
2022/02/07 04:27:24;;;;;;;;;2.33;2.33;;;;;;;;5019944;28;45400;-96
2022/02/07 04:29:49;;;;;;;;;1.33;1.33;;;;;;;;5034903;28;45373;-95
2022/02/07 04:32:14;;;;;;;;;2.00;2.00;;;;;;;;5035346;28;48237;-96
2022/02/07 04:34:40;;;;;;;;;5.00;2.00;;;;;;;;5039462;28;45428;-95
2022/02/07 04:37:06;;;;;;;;;2.00;2.00;;;;;;;;5025973;28;45346;-96
2022/02/07 04:39:31;;;;;;;;;5.33;3.00;;;;;;;;5037097;28;45960;-96
2022/02/07 04:41:57;;;;;;;;;2.67;2.00;;;;;;;;5039109;28;48138;-96
2022/02/07 04:44:32;;;;;;;;;3.00;3.00;;;;;;;;5038872;28;45396;-95
2022/02/07 04:55:04;;;;;;;;;3.00;0.67;;;;;;;;5057577;28;45442;-96
2022/02/07 04:57:47;;;;;;;;;1.00;1.00;;;;;;;;5024306;28;45481;-95
2022/02/07 05:13:49;;;;;;;;;1.00;1.00;;;;;;;;4960861;28;45275;-96
2022/02/07 05:16:35;;;;;;;;;4.67;2.67;;;;;;;;4974378;28;45396;-95
2022/02/07 05:19:04;;;;;;;;;2.00;2.00;;;;;;;;4961697;28;45384;-96
2022/02/07 05:21:29;;;;;;;;;3.00;3.00;;;;;;;;4958832;28;44935;-96
2022/02/07 05:23:54;;;;;;;;;5.33;3.00;;;;;;;;4976221;28;47168;-96
2022/02/07 05:26:21;;;;;;;;;6.33;3.00;;;;;;;;4985340;28;45480;-96
2022/02/07 05:28:46;;;;;;;;;5.67;4.33;;;;;;;;4971253;28;45540;-96
2022/02/07 05:31:12;;;;;;;;;6.00;2.67;;;;;;;;4971690;28;45528;-96
2022/02/07 05:33:39;;;;;;;;;3.00;3.00;;;;;;;;4938940;28;47437;-96
2022/02/07 05:36:04;;;;;;;;;5.00;5.00;;;;;;;;4964644;28;45394;-96
2022/02/07 05:38:30;;;;;;;;;7.33;3.33;;;;;;;;5094053;22;45753;-96
2022/02/07 05:41:00;;;;;;;;;3.00;2.33;;;;;;;;5018632;28;45562;-95
2022/02/07 05:43:25;;;;;;;;;1.33;1.33;;;;;;;;5018651;28;47378;-96
2022/02/07 05:45:50;;;;;;;;;4.00;0.00;;;;;;;;5017845;28;46219;-96
2022/02/07 05:48:15;;;;;;;;;5.00;3.00;;;;;;;;5034084;28;45603;-96
2022/02/07 05:50:41;;;;;;;;;5.67;2.00;;;;;;;;5035140;28;45478;-96
2022/02/07 05:53:06;;;;;;;;;2.00;2.00;;;;;;;;5021702;28;48272;-95
2022/02/07 05:55:31;;;;;;;;;5.00;2.33;;;;;;;;5021509;28;45952;-95
2022/02/07 05:58:01;;;;;;;;;3.00;1.67;;;;;;;;5021843;28;45339;-95
2022/02/07 06:00:32;;;;;;;;;3.00;3.00;;;;;;;;5041852;28;45431;-96
2022/02/07 06:02:58;;;;;;;;;2.67;2.67;;;;;;;;5037945;28;47109;-96
2022/02/07 06:05:23;;;;;;;;;3.33;1.33;;;;;;;;5018296;28;45390;-95
2022/02/07 06:07:48;;;;;;;;;7.67;2.67;;;;;;;;5014518;28;45475;-95
2022/02/07 06:10:13;;;;;;;;;1.00;1.00;;;;;;;;5040157;28;45344;-96
2022/02/07 06:12:39;;;;;;;;;4.00;2.00;;;;;;;;5021099;28;47200;-96
2022/02/07 06:15:05;;;;;;;;;4.33;1.33;;;;;;;;5035802;28;45481;-96
2022/02/07 06:17:31;;;;;;;;;3.67;2.00;;;;;;;;5065139;28;44789;-96
2022/02/07 06:19:58;;;;;;;;;3.00;3.00;;;;;;;;5048444;28;44763;-96
2022/02/07 06:22:23;;;;;;;;;3.67;2.67;;;;;;;;5066255;28;47095;-96
2022/02/07 06:24:49;;;;;;;;;3.00;3.00;;;;;;;;5033843;28;45354;-96
2022/02/07 06:27:14;;;;;;;;;3.00;2.00;;;;;;;;5039127;28;53559;-96
2022/02/07 06:29:39;;;;;;;;;7.00;3.00;;;;;;;;5022171;28;45554;-96
2022/02/07 06:32:05;;;;;;;;;4.67;3.00;;;;;;;;5021183;28;47213;-96
2022/02/07 06:34:30;;;;;;;;;2.33;2.00;;;;;;;;5021549;28;45471;-96
2022/02/07 06:36:55;;;;;;;;;7.00;3.00;;;;;;;;5021574;28;45281;-96
2022/02/07 06:39:20;;;;;;;;;6.00;3.00;;;;;;;;5020575;28;45259;-96
2022/02/07 06:41:47;;;;;;;;;6.00;5.33;;;;;;;;5024190;28;47256;-96
2022/02/07 06:44:12;;;;;;;;;6.33;4.00;;;;;;;;5020854;28;45502;-96
2022/02/07 06:46:37;;;;;;;;;5.00;3.00;;;;;;;;5025019;28;45721;-95
2022/02/07 06:49:02;;;;;;;;;4.67;4.67;;;;;;;;5040898;28;45522;-95
2022/02/07 06:51:28;;;;;;;;;4.67;4.67;;;;;;;;5020217;28;48381;-96
2022/02/07 06:53:53;;;;;;;;;3.33;2.00;;;;;;;;5021536;28;45336;-96
2022/02/07 06:56:20;;;;;;;;;6.33;2.00;;;;;;;;5020562;28;45465;-96
2022/02/07 06:58:45;;;;;;;;;9.00;2.67;;;;;;;;5020432;28;45390;-96
2022/02/07 07:01:14;;;;;;;;;5.67;3.00;;;;;;;;5021541;28;48393;-96
2022/02/07 07:03:43;;;;;;;;;4.67;2.00;;;;;;;;5001562;28;45341;-96
2022/02/07 07:06:08;;;;;;;;;6.33;3.00;;;;;;;;5028999;28;45412;-96
2022/02/07 07:08:38;;;;;;;;;8.00;6.00;;;;;;;;5020597;28;45429;-96
2022/02/07 07:11:04;;;;;;;;;4.33;3.00;;;;;;;;5020909;28;47326;-96
2022/02/07 07:13:38;;;;;;;;;3.00;3.00;;;;;;;;5021035;28;45416;-96
2022/02/07 07:16:15;;;;;;;;;5.00;3.33;;;;;;;;5001091;28;45432;-96
2022/02/07 07:18:40;;;;;;;;;6.00;3.00;;;;;;;;5020746;28;45471;-96
2022/02/07 07:21:06;;;;;;;;;3.00;3.00;;;;;;;;5026749;28;47044;-96
2022/02/07 07:23:32;;;;;;;;;6.33;5.33;;;;;;;;5032589;28;45318;-95
2022/02/07 07:25:58;;;;;;;;;5.00;3.00;;;;;;;;5042352;28;45471;-94
2022/02/07 07:28:24;;;;;;;;;8.00;4.67;;;;;;;;5036534;28;45620;-95
2022/02/07 07:30:54;;;;;;;;;5.00;3.00;;;;;;;;5019180;28;47655;-96
2022/02/07 07:33:23;;;;;;;;;6.33;5.00;;;;;;;;5018444;28;45399;-95
2022/02/07 07:35:49;;;;;;;;;2.00;2.00;;;;;;;;5018723;28;45466;-96
2022/02/07 07:38:14;;;;;;;;;3.33;3.00;;;;;;;;5015611;28;45163;-96
2022/02/07 07:40:40;;;;;;;;;7.67;2.33;;;;;;;;5013640;28;47350;-96
2022/02/07 07:43:07;;;;;;;;;3.00;3.00;;;;;;;;5045671;28;45286;-96
2022/02/07 07:45:44;;;;;;;;;6.00;5.00;;;;;;;;5018279;28;44809;-96
2022/02/07 07:48:13;;;;;;;;;9.00;5.33;;;;;;;;5017052;28;45453;-96
2022/02/07 07:51:19;;;;;;;;;9.33;6.33;;;;;;;;5030320;28;47032;-96
2022/02/07 07:54:12;;;;;;;;;7.33;6.67;;;;;;;;5040717;28;44951;-96
2022/02/07 08:02:17;;;;;;;;;7.00;6.00;;;;;;;;5126647;22;46121;-96
2022/02/07 08:04:46;;;;;;;;;6.67;6.00;;;;;;;;5084717;28;44807;-96
2022/02/07 08:12:26;;;;;;;;;12.00;3.33;;;;;;;;5031644;28;45543;-96
2022/02/07 08:14:51;;;;;;;;;11.33;8.33;;;;;;;;5034444;28;45362;-96
2022/02/07 08:27:36;;;;;;;;;12.33;7.00;;;;;;;;5047076;28;45508;-95
2022/02/07 08:38:07;;;;;;;;;7.67;6.00;;;;;;;;5127527;22;45078;-96
2022/02/07 08:40:33;;;;;;;;;7.00;7.00;;;;;;;;5389731;22;46307;-92
2022/02/07 08:43:08;;;;;;;;;11.33;7.33;;;;;;;;5277477;22;45291;-96
2022/02/07 08:45:34;;;;;;;;;7.67;6.33;;;;;;;;5262626;22;46513;-96
2022/02/07 08:47:59;;;;;;;;;7.00;6.33;;;;;;;;5188095;22;46425;-96
2022/02/07 08:50:25;;;;;;;;;9.67;6.33;;;;;;;;5048878;28;45490;-96
2022/02/07 08:52:51;;;;;;;;;9.33;6.00;;;;;;;;5067730;28;45773;-96
2022/02/07 08:55:27;;;;;;;;;4.67;4.67;;;;;;;;5051735;28;45289;-96
2022/02/07 08:57:59;;;;;;;;;12.33;8.33;;;;;;;;5055725;27;44766;-95
2022/02/07 09:21:07;;;;;;;;;8.67;6.00;;;;;;;;5426955;22;45407;-93
2022/02/07 09:39:03;;;;;;;;;6.67;6.00;;;;;;;;5936772;22;46003;-96
2022/02/07 09:41:32;;;;;;;;;11.33;8.00;;;;;;;;5077001;27;44843;-97
2022/02/07 09:44:00;;;;;;;;;7.67;7.00;;;;;;;;5338136;22;46831;-95
2022/02/07 09:56:47;;;;;;;;;8.00;3.67;;;;;;;;5511168;22;46457;-96
2022/02/07 10:12:23;;;;;;;;;2.67;2.00;;;;;;;;5052033;28;45898;-96
2022/02/07 10:15:08;;;;;;;;;7.00;4.33;;;;;;;;5040646;28;46720;-96
2022/02/07 10:17:48;;;;;;;;;6.33;4.00;;;;;;;;5060453;28;44702;-96
2022/02/07 11:34:43;;;;;;;;;9.00;2.67;;;;;;;;4972770;28;45446;-91
2022/02/07 11:37:21;;;;;;;;;4.00;3.00;;;;;;;;4974487;28;45383;-96
2022/02/07 11:39:48;;;;;;;;;5.33;1.00;;;;;;;;5075986;23;47593;-95
2022/02/07 11:42:14;;;;;;;;;5.00;2.00;;;;;;;;5274082;23;45772;-96
2022/02/07 11:44:43;;;;;;;;;4.00;2.67;;;;;;;;5064548;23;45220;-96
2022/02/07 11:47:12;;;;;;;;;5.00;1.00;;;;;;;;4980525;28;45656;-95
2022/02/07 11:49:41;;;;;;;;;6.67;4.00;;;;;;;;4979259;28;47500;-96
2022/02/07 11:52:25;;;;;;;;;5.00;4.00;;;;;;;;4991343;28;45414;-93
2022/02/07 11:54:57;;;;;;;;;9.00;3.00;;;;;;;;4985379;28;44727;-95
2022/02/07 11:57:24;;;;;;;;;3.33;3.00;;;;;;;;4976890;28;45609;-93
2022/02/07 11:59:57;;;;;;;;;5.67;2.00;;;;;;;;5161390;22;45731;-92
2022/02/07 12:26:24;;;;;;;;;6.33;2.67;;;;;;;;5476395;22;45460;-96
2022/02/07 12:28:56;;;;;;;;;7.33;2.00;;;;;;;;5005775;28;45438;-96
2022/02/07 12:31:23;;;;;;;;;4.00;3.33;;;;;;;;5003475;28;46490;-96
2022/02/07 12:33:53;;;;;;;;;2.33;2.33;;;;;;;;5020986;28;45376;-96
2022/02/07 12:36:19;;;;;;;;;2.33;2.00;;;;;;;;5004180;28;45189;-96
2022/02/07 12:38:44;;;;;;;;;2.00;2.00;;;;;;;;5004249;28;45677;-96
2022/02/07 12:41:12;;;;;;;;;1.67;1.67;;;;;;;;5020278;28;45466;-96
2022/02/07 12:43:38;;;;;;;;;3.67;3.67;;;;;;;;5023783;28;45366;-96
2022/02/07 12:46:06;;;;;;;;;5.00;2.67;;;;;;;;5001944;28;45417;-96
2022/02/07 12:48:34;;;;;;;;;3.33;1.67;;;;;;;;4991446;28;44999;-96
2022/02/07 12:50:59;;;;;;;;;1.00;1.00;;;;;;;;5018341;28;45398;-96
2022/02/07 12:53:26;;;;;;;;;3.00;2.33;;;;;;;;5016311;28;45455;-96
2022/02/07 12:55:57;;;;;;;;;2.67;2.33;;;;;;;;5018826;28;44949;-96
2022/02/07 12:58:23;;;;;;;;;2.33;2.33;;;;;;;;5001666;28;45982;-96
2022/02/07 13:00:49;;;;;;;;;3.00;2.00;;;;;;;;4998688;28;46886;-96
2022/02/07 13:03:14;;;;;;;;;2.00;2.00;;;;;;;;5001150;28;45235;-96
2022/02/07 13:05:39;;;;;;;;;4.33;2.33;;;;;;;;5006231;28;45483;-96
2022/02/07 13:08:04;;;;;;;;;2.00;2.00;;;;;;;;5004675;28;45468;-96
2022/02/07 13:10:35;;;;;;;;;4.33;2.67;;;;;;;;5081554;22;46269;-96
2022/02/07 13:15:29;;;;;;;;;3.33;2.33;;;;;;;;5005673;28;45268;-96
2022/02/07 13:17:59;;;;;;;;;1.67;1.67;;;;;;;;4989815;28;45322;-96
2022/02/07 13:20:25;;;;;;;;;2.00;2.00;;;;;;;;4998772;28;47628;-96
2022/02/07 13:23:05;;;;;;;;;2.00;2.00;;;;;;;;4994660;28;44744;-96
2022/02/07 13:25:44;;;;;;;;;3.67;1.67;;;;;;;;4997931;28;44788;-96
2022/02/07 13:28:10;;;;;;;;;4.67;3.33;;;;;;;;5010649;28;44774;-96
2022/02/07 13:30:38;;;;;;;;;3.00;2.67;;;;;;;;5020381;28;45740;-95
2022/02/07 13:33:03;;;;;;;;;3.67;2.00;;;;;;;;5011229;28;44811;-96
2022/02/07 13:35:35;;;;;;;;;2.00;1.67;;;;;;;;5005000;28;44712;-96
2022/02/07 13:38:05;;;;;;;;;2.00;2.00;;;;;;;;5012550;28;44831;-96
2022/02/07 13:40:37;;;;;;;;;3.00;1.67;;;;;;;;4995974;28;45691;-96
2022/02/07 13:43:02;;;;;;;;;2.00;2.00;;;;;;;;5009982;28;45057;-96
2022/02/07 13:45:29;;;;;;;;;3.00;3.00;;;;;;;;5027868;28;44747;-96
2022/02/07 13:47:56;;;;;;;;;2.00;0.67;;;;;;;;5004202;28;44810;-96
2022/02/07 13:50:23;;;;;;;;;4.33;3.00;;;;;;;;5001183;28;46229;-96
2022/02/07 13:52:50;;;;;;;;;5.00;2.00;;;;;;;;5001713;28;44814;-96
2022/02/07 13:55:24;;;;;;;;;3.00;3.00;;;;;;;;5015939;28;44893;-95
2022/02/07 13:57:51;;;;;;;;;2.00;2.00;;;;;;;;4998146;28;45422;-96
2022/02/07 14:00:16;;;;;;;;;1.00;1.00;;;;;;;;5003002;28;46175;-96
2022/02/07 14:05:15;;;;;;;;;2.00;1.00;;;;;;;;5012833;28;44813;-96
2022/02/07 14:07:51;;;;;;;;;3.33;1.33;;;;;;;;4994830;28;45601;-96
2022/02/07 14:10:21;;;;;;;;;6.00;0.00;;;;;;;;4989054;28;46713;-96
2022/02/07 14:12:47;;;;;;;;;2.00;2.00;;;;;;;;4986140;28;45410;-96
2022/02/07 14:15:12;;;;;;;;;5.00;3.00;;;;;;;;5006122;28;45273;-96
2022/02/07 14:17:43;;;;;;;;;2.00;2.00;;;;;;;;5007213;28;45304;-96
2022/02/07 14:20:10;;;;;;;;;3.33;2.00;;;;;;;;4989946;28;46474;-96
2022/02/07 14:22:36;;;;;;;;;6.33;3.00;;;;;;;;5004486;28;45424;-96
2022/02/07 14:25:02;;;;;;;;;4.00;2.67;;;;;;;;5007493;28;45166;-96
2022/02/07 14:27:27;;;;;;;;;4.00;2.67;;;;;;;;4985706;28;45228;-96
2022/02/07 14:29:53;;;;;;;;;3.33;1.00;;;;;;;;5005345;28;45601;-96
2022/02/07 14:32:18;;;;;;;;;3.00;3.00;;;;;;;;5008158;28;45352;-96
2022/02/07 14:34:43;;;;;;;;;2.00;2.00;;;;;;;;4986678;28;45639;-96
2022/02/07 14:37:10;;;;;;;;;5.33;2.00;;;;;;;;5010868;28;44766;-96
2022/02/07 14:39:36;;;;;;;;;2.33;2.33;;;;;;;;4992375;28;46487;-96
2022/02/07 14:42:04;;;;;;;;;2.33;2.00;;;;;;;;5014764;28;44710;-96
2022/02/07 14:44:32;;;;;;;;;4.00;3.00;;;;;;;;5015015;28;45675;-96
2022/02/07 14:47:13;;;;;;;;;3.33;3.33;;;;;;;;5013407;28;45400;-96
2022/02/07 14:49:38;;;;;;;;;4.00;3.00;;;;;;;;5020578;22;46177;-96
2022/02/07 14:52:04;;;;;;;;;2.00;2.00;;;;;;;;4986202;28;45410;-96
2022/02/07 14:54:30;;;;;;;;;4.67;2.67;;;;;;;;4987369;28;45465;-96
2022/02/07 14:56:55;;;;;;;;;4.67;2.00;;;;;;;;4986522;28;45223;-96
2022/02/07 14:59:23;;;;;;;;;4.67;3.00;;;;;;;;4989489;28;47044;-96
2022/02/07 15:01:52;;;;;;;;;4.33;4.00;;;;;;;;4976193;28;45761;-96
2022/02/07 15:04:17;;;;;;;;;1.33;1.33;;;;;;;;4976820;28;45399;-96
2022/02/07 15:06:45;;;;;;;;;3.00;3.00;;;;;;;;4990623;28;44829;-96
2022/02/07 15:09:10;;;;;;;;;4.33;2.33;;;;;;;;4999440;28;46687;-96
2022/02/07 15:11:36;;;;;;;;;7.33;4.00;;;;;;;;4987448;28;44854;-96
2022/02/07 15:14:01;;;;;;;;;6.00;4.00;;;;;;;;4988847;28;45358;-96
2022/02/07 15:16:27;;;;;;;;;2.33;2.33;;;;;;;;4982094;28;45445;-96
2022/02/07 15:18:52;;;;;;;;;4.00;4.00;;;;;;;;4984966;28;46230;-96
2022/02/07 15:21:17;;;;;;;;;5.00;5.00;;;;;;;;4995702;28;45286;-90
2022/02/07 15:23:42;;;;;;;;;5.33;4.00;;;;;;;;4969333;28;45457;-89
2022/02/07 15:26:08;;;;;;;;;5.33;3.67;;;;;;;;4968682;28;45378;-88
2022/02/07 15:28:34;;;;;;;;;3.67;3.33;;;;;;;;4964482;28;47292;-90
2022/02/07 15:30:59;;;;;;;;;7.67;4.00;;;;;;;;4974194;28;45474;-89
2022/02/07 15:33:33;;;;;;;;;5.67;4.00;;;;;;;;4986008;28;45401;-88
2022/02/07 15:35:58;;;;;;;;;5.67;3.00;;;;;;;;4987485;28;45763;-89
2022/02/07 15:38:24;;;;;;;;;4.00;2.00;;;;;;;;4970532;28;47409;-90
2022/02/07 15:40:50;;;;;;;;;4.33;4.33;;;;;;;;4972763;28;45750;-90
2022/02/07 15:43:16;;;;;;;;;8.33;4.00;;;;;;;;4974760;28;45705;-90
2022/02/07 15:45:42;;;;;;;;;6.67;3.67;;;;;;;;4992730;28;45649;-89
2022/02/07 15:48:07;;;;;;;;;5.00;2.33;;;;;;;;4968947;28;47078;-90
2022/02/07 15:50:32;;;;;;;;;5.67;4.00;;;;;;;;4952722;28;49771;-89
2022/02/07 15:52:59;;;;;;;;;4.33;4.00;;;;;;;;4951698;28;45561;-89
2022/02/07 15:55:27;;;;;;;;;4.00;3.00;;;;;;;;4954450;28;45782;-89
2022/02/07 15:57:52;;;;;;;;;4.00;2.33;;;;;;;;4974074;28;45522;-89
2022/02/07 16:00:17;;;;;;;;;2.67;2.67;;;;;;;;4969443;28;45630;-90
2022/02/07 16:02:50;;;;;;;;;8.33;3.00;;;;;;;;4954571;28;45436;-89
2022/02/07 16:05:19;;;;;;;;;3.33;2.67;;;;;;;;4947710;28;45629;-89
2022/02/07 16:07:44;;;;;;;;;2.00;2.00;;;;;;;;4952372;28;48402;-89
2022/02/07 16:10:10;;;;;;;;;6.67;4.00;;;;;;;;4938607;28;45494;-89
2022/02/07 16:12:35;;;;;;;;;6.67;3.00;;;;;;;;4969845;28;45541;-89
2022/02/07 16:15:01;;;;;;;;;3.00;2.00;;;;;;;;4967408;28;45576;-90
2022/02/07 16:17:26;;;;;;;;;3.00;3.00;;;;;;;;4966488;28;46553;-89
2022/02/07 16:19:51;;;;;;;;;4.33;3.00;;;;;;;;4952961;28;45783;-89
2022/02/07 16:22:16;;;;;;;;;4.00;3.00;;;;;;;;4942808;28;45448;-89
2022/02/07 16:24:45;;;;;;;;;7.67;3.00;;;;;;;;4970913;28;45409;-89
2022/02/07 16:27:10;;;;;;;;;6.67;4.00;;;;;;;;4969821;28;45823;-89
2022/02/07 16:29:36;;;;;;;;;3.00;3.00;;;;;;;;4965875;28;45600;-89
2022/02/07 16:32:01;;;;;;;;;2.33;2.00;;;;;;;;4954316;28;45594;-89
2022/02/07 16:34:26;;;;;;;;;6.67;3.33;;;;;;;;4951545;28;45554;-89
2022/02/07 16:36:51;;;;;;;;;4.00;4.00;;;;;;;;4969804;28;46366;-89
2022/02/07 16:39:18;;;;;;;;;3.33;1.67;;;;;;;;4960763;28;51798;-89
2022/02/07 16:41:44;;;;;;;;;5.00;3.00;;;;;;;;4946907;28;45517;-88
2022/02/07 16:44:11;;;;;;;;;5.33;4.00;;;;;;;;4950700;28;45315;-88
2022/02/07 16:46:48;;;;;;;;;7.67;3.00;;;;;;;;4945888;28;47431;-87
2022/02/07 16:49:14;;;;;;;;;5.33;4.67;;;;;;;;4959707;28;46625;-88
2022/02/07 16:51:39;;;;;;;;;5.00;4.67;;;;;;;;4963740;28;45793;-89
2022/02/07 16:54:04;;;;;;;;;9.67;3.00;;;;;;;;4986237;28;45665;-90
2022/02/07 16:56:30;;;;;;;;;8.33;3.67;;;;;;;;4965793;28;47242;-90
2022/02/07 16:58:55;;;;;;;;;7.00;4.00;;;;;;;;4982729;28;45919;-90
2022/02/07 17:01:20;;;;;;;;;8.00;4.00;;;;;;;;4987330;28;45649;-91
2022/02/07 17:03:46;;;;;;;;;6.33;4.00;;;;;;;;4991590;28;45429;-89
2022/02/07 17:06:11;;;;;;;;;3.33;3.33;;;;;;;;4963886;28;48444;-90
2022/02/07 17:08:36;;;;;;;;;5.67;3.67;;;;;;;;4967176;28;45519;-89
2022/02/07 17:11:05;;;;;;;;;5.33;2.33;;;;;;;;4966004;28;45422;-89
2022/02/07 17:13:30;;;;;;;;;7.67;5.00;;;;;;;;4971151;28;45581;-89
2022/02/07 17:15:56;;;;;;;;;2.67;2.67;;;;;;;;4971431;28;46240;-90
2022/02/07 17:18:21;;;;;;;;;5.00;3.67;;;;;;;;4984615;28;45429;-88
2022/02/07 17:20:47;;;;;;;;;4.00;3.00;;;;;;;;4968173;28;45462;-89
2022/02/07 17:23:12;;;;;;;;;4.33;4.33;;;;;;;;4967346;28;45521;-89
2022/02/07 17:25:40;;;;;;;;;8.00;7.00;;;;;;;;4973796;28;47900;-89
2022/02/07 17:28:05;;;;;;;;;4.00;4.00;;;;;;;;4972689;28;45572;-90
2022/02/07 17:30:32;;;;;;;;;5.33;4.67;;;;;;;;4968790;28;45491;-89
2022/02/07 17:32:57;;;;;;;;;3.00;3.00;;;;;;;;4968371;28;45555;-90
2022/02/07 17:35:22;;;;;;;;;3.67;3.00;;;;;;;;4983617;28;45980;-89
2022/02/07 17:37:47;;;;;;;;;6.33;4.67;;;;;;;;4990258;28;45452;-89
2022/02/07 17:40:14;;;;;;;;;7.00;4.00;;;;;;;;4990420;28;45500;-89
2022/02/07 17:42:41;;;;;;;;;4.67;4.33;;;;;;;;4968130;28;45706;-90
2022/02/07 17:45:08;;;;;;;;;4.33;4.00;;;;;;;;4986393;28;45480;-90
2022/02/07 17:47:33;;;;;;;;;7.33;4.00;;;;;;;;5007409;28;45642;-90
2022/02/07 17:49:58;;;;;;;;;4.33;4.00;;;;;;;;4996685;28;45871;-89
2022/02/07 17:52:24;;;;;;;;;7.00;4.00;;;;;;;;4991224;28;45147;-89
2022/02/07 17:54:50;;;;;;;;;10.67;7.00;;;;;;;;4988036;28;47674;-89
2022/02/07 17:57:17;;;;;;;;;6.00;4.67;;;;;;;;4980200;28;45670;-88
2022/02/07 17:59:43;;;;;;;;;4.33;3.33;;;;;;;;4974524;28;45686;-89
2022/02/07 18:02:08;;;;;;;;;4.67;4.00;;;;;;;;4994890;28;45522;-89
2022/02/07 18:04:33;;;;;;;;;6.00;2.00;;;;;;;;4976493;28;47354;-89
2022/02/07 18:06:58;;;;;;;;;10.00;7.00;;;;;;;;4978553;28;45997;-89
2022/02/07 18:09:24;;;;;;;;;6.33;5.67;;;;;;;;4983750;28;46628;-88
2022/02/07 18:11:49;;;;;;;;;7.00;7.00;;;;;;;;4973600;28;45577;-88
2022/02/07 18:14:14;;;;;;;;;5.67;5.33;;;;;;;;4964754;28;47283;-89
2022/02/07 18:16:40;;;;;;;;;7.67;7.67;;;;;;;;4967100;28;45926;-89
2022/02/07 18:19:09;;;;;;;;;7.67;5.33;;;;;;;;4966590;28;45531;-90
2022/02/07 18:21:38;;;;;;;;;7.67;5.33;;;;;;;;4974075;28;45323;-89
2022/02/07 18:24:05;;;;;;;;;9.00;6.00;;;;;;;;4987787;28;45692;-90
2022/02/07 18:26:30;;;;;;;;;5.33;5.33;;;;;;;;4982214;28;45422;-90
2022/02/07 18:28:55;;;;;;;;;9.33;8.00;;;;;;;;4968848;28;45536;-90
2022/02/07 18:31:20;;;;;;;;;8.67;7.00;;;;;;;;4972582;28;45527;-89
2022/02/07 18:33:46;;;;;;;;;8.67;7.67;;;;;;;;4989545;28;45698;-90
2022/02/07 18:36:13;;;;;;;;;9.33;7.33;;;;;;;;4966544;28;45935;-89
2022/02/07 18:38:40;;;;;;;;;7.33;6.33;;;;;;;;4968537;28;45544;-90
2022/02/07 18:41:21;;;;;;;;;12.33;7.00;;;;;;;;4972456;28;45578;-90
2022/02/07 18:43:49;;;;;;;;;7.00;7.00;;;;;;;;4957507;28;47195;-90
2022/02/07 18:46:15;;;;;;;;;11.33;7.33;;;;;;;;4968164;28;45582;-90
2022/02/07 18:48:40;;;;;;;;;9.33;8.00;;;;;;;;4973797;28;45486;-89
2022/02/07 18:51:06;;;;;;;;;13.67;6.67;;;;;;;;4971390;28;52497;-89
2022/02/07 18:53:32;;;;;;;;;8.67;6.67;;;;;;;;4972198;28;46531;-89
2022/02/07 18:55:57;;;;;;;;;10.67;8.67;;;;;;;;4988826;28;46218;-88
2022/02/07 19:01:07;;;;;;;;;11.67;10.00;;;;;;;;4991609;28;45596;-87
2022/02/07 19:08:37;;;;;;;;;9.00;9.00;;;;;;;;4988910;28;45488;-90
2022/02/07 19:11:03;;;;;;;;;12.00;7.33;;;;;;;;4967677;28;45379;-88
2022/02/07 19:13:28;;;;;;;;;10.33;9.00;;;;;;;;4958211;28;47690;-89
2022/02/07 19:15:54;;;;;;;;;7.00;7.00;;;;;;;;4970819;28;45415;-89
2022/02/07 19:18:20;;;;;;;;;13.00;8.67;;;;;;;;4971581;28;45744;-88
2022/02/07 19:20:47;;;;;;;;;12.00;8.00;;;;;;;;4968765;28;45544;-89
2022/02/07 19:23:19;;;;;;;;;10.33;9.00;;;;;;;;4973016;28;48347;-88
2022/02/07 19:25:57;;;;;;;;;13.67;8.67;;;;;;;;4964927;28;45470;-88
2022/02/07 19:28:25;;;;;;;;;14.67;12.33;;;;;;;;4977665;28;45489;-88
2022/02/07 19:30:59;;;;;;;;;10.33;9.00;;;;;;;;4985731;28;45518;-88
2022/02/07 19:33:28;;;;;;;;;8.67;8.67;;;;;;;;4972509;28;46224;-88